sensor_id;sensor_type;location;lat;lon;timestamp;pressure;altitude;pressure_sealevel;temperature;humidity
24306;BME280;12423;48.768;8.850;2023-09-19T00:01:40;96627.28;;;16.27;100.00
24306;BME280;12423;48.768;8.850;2023-09-19T00:04:09;96623.56;;;16.28;100.00
24306;BME280;12423;48.768;8.850;2023-09-19T00:06:39;96620.69;;;16.30;100.00
24306;BME280;12423;48.768;8.850;2023-09-19T00:09:06;96628.25;;;16.34;100.00
24306;BME280;12423;48.768;8.850;2023-09-19T00:11:36;96626.03;;;16.38;100.00
24306;BME280;12423;48.768;8.850;2023-09-19T00:14:04;96622.81;;;16.43;100.00
24306;BME280;12423;48.768;8.850;2023-09-19T00:16:35;96626.53;;;16.42;100.00
24306;BME280;12423;48.768;8.850;2023-09-19T00:19:03;96634.25;;;16.45;100.00
24306;BME280;12423;48.768;8.850;2023-09-19T00:21:37;96622.84;;;16.34;100.00
24306;BME280;12423;48.768;8.850;2023-09-19T00:24:07;96620.00;;;16.36;100.00
24306;BME280;12423;48.768;8.850;2023-09-19T00:26:35;96626.22;;;16.36;100.00
24306;BME280;12423;48.768;8.850;2023-09-19T00:29:03;96628.25;;;16.34;100.00
24306;BME280;12423;48.768;8.850;2023-09-19T00:31:35;96630.28;;;16.32;100.00
24306;BME280;12423;48.768;8.850;2023-09-19T00:34:04;96628.59;;;16.31;100.00
24306;BME280;12423;48.768;8.850;2023-09-19T00:36:32;96622.69;;;16.36;100.00
24306;BME280;12423;48.768;8.850;2023-09-19T00:39:02;96629.06;;;16.35;100.00
24306;BME280;12423;48.768;8.850;2023-09-19T00:41:31;96628.91;;;16.36;100.00
24306;BME280;12423;48.768;8.850;2023-09-19T00:44:01;96626.72;;;16.40;100.00
24306;BME280;12423;48.768;8.850;2023-09-19T00:46:30;96633.47;;;16.36;100.00
24306;BME280;12423;48.768;8.850;2023-09-19T00:48:59;96639.22;;;16.33;100.00
24306;BME280;12423;48.768;8.850;2023-09-19T00:51:28;96636.69;;;16.31;100.00
24306;BME280;12423;48.768;8.850;2023-09-19T00:53:56;96644.94;;;16.30;100.00
24306;BME280;12423;48.768;8.850;2023-09-19T00:56:27;96640.41;;;16.30;100.00
24306;BME280;12423;48.768;8.850;2023-09-19T00:58:55;96636.03;;;16.29;100.00
24306;BME280;12423;48.768;8.850;2023-09-19T01:01:23;96641.41;;;16.29;100.00
24306;BME280;12423;48.768;8.850;2023-09-19T01:03:51;96638.44;;;16.24;100.00
24306;BME280;12423;48.768;8.850;2023-09-19T01:06:19;96634.44;;;16.12;100.00
24306;BME280;12423;48.768;8.850;2023-09-19T01:08:47;96630.91;;;16.11;100.00
24306;BME280;12423;48.768;8.850;2023-09-19T01:11:15;96646.44;;;16.09;100.00
24306;BME280;12423;48.768;8.850;2023-09-19T01:13:50;96650.13;;;16.08;100.00
24306;BME280;12423;48.768;8.850;2023-09-19T01:16:28;96643.56;;;16.11;100.00
24306;BME280;12423;48.768;8.850;2023-09-19T01:19:01;96647.25;;;16.10;100.00
24306;BME280;12423;48.768;8.850;2023-09-19T01:21:37;96657.03;;;16.11;100.00
24306;BME280;12423;48.768;8.850;2023-09-19T01:24:10;96656.19;;;16.10;100.00
24306;BME280;12423;48.768;8.850;2023-09-19T01:26:54;96665.28;;;16.09;100.00
24306;BME280;12423;48.768;8.850;2023-09-19T01:29:31;96662.09;;;16.06;100.00
24306;BME280;12423;48.768;8.850;2023-09-19T01:32:03;96667.84;;;16.02;100.00
24306;BME280;12423;48.768;8.850;2023-09-19T01:34:45;96667.84;;;16.02;100.00
24306;BME280;12423;48.768;8.850;2023-09-19T01:37:15;96675.63;;;15.97;100.00
24306;BME280;12423;48.768;8.850;2023-09-19T01:39:46;96669.03;;;16.00;100.00
24306;BME280;12423;48.768;8.850;2023-09-19T01:42:18;96672.75;;;15.99;100.00
24306;BME280;12423;48.768;8.850;2023-09-19T01:44:50;96686.56;;;15.96;100.00
24306;BME280;12423;48.768;8.850;2023-09-19T01:47:23;96680.00;;;15.90;100.00
24306;BME280;12423;48.768;8.850;2023-09-19T01:49:55;96684.06;;;15.86;100.00
24306;BME280;12423;48.768;8.850;2023-09-19T01:52:24;96684.28;;;15.76;100.00
24306;BME280;12423;48.768;8.850;2023-09-19T01:54:55;96678.38;;;15.73;100.00
24306;BME280;12423;48.768;8.850;2023-09-19T01:57:26;96688.47;;;15.71;100.00
24306;BME280;12423;48.768;8.850;2023-09-19T01:59:57;96688.50;;;15.62;100.00
24306;BME280;12423;48.768;8.850;2023-09-19T02:02:28;96692.88;;;15.55;100.00
24306;BME280;12423;48.768;8.850;2023-09-19T02:04:57;96696.75;;;15.53;100.00
24306;BME280;12423;48.768;8.850;2023-09-19T02:07:27;96700.28;;;15.53;100.00
24306;BME280;12423;48.768;8.850;2023-09-19T02:09:57;96702.31;;;15.51;100.00
24306;BME280;12423;48.768;8.850;2023-09-19T02:12:26;96694.25;;;15.51;100.00
24306;BME280;12423;48.768;8.850;2023-09-19T02:14:53;96686.50;;;15.48;100.00
24306;BME280;12423;48.768;8.850;2023-09-19T02:17:22;96689.88;;;15.42;100.00
24306;BME280;12423;48.768;8.850;2023-09-19T02:19:53;96683.84;;;15.40;100.00
24306;BME280;12423;48.768;8.850;2023-09-19T02:22:21;96689.22;;;15.40;100.00
24306;BME280;12423;48.768;8.850;2023-09-19T02:24:49;96687.38;;;15.32;100.00
24306;BME280;12423;48.768;8.850;2023-09-19T02:27:17;96692.59;;;15.25;100.00
24306;BME280;12423;48.768;8.850;2023-09-19T02:29:45;96707.75;;;15.18;100.00
24306;BME280;12423;48.768;8.850;2023-09-19T02:32:13;96697.47;;;15.22;100.00
24306;BME280;12423;48.768;8.850;2023-09-19T02:34:41;96694.13;;;15.20;100.00
24306;BME280;12423;48.768;8.850;2023-09-19T02:37:10;96695.63;;;15.22;100.00
24306;BME280;12423;48.768;8.850;2023-09-19T02:39:39;96704.72;;;15.29;100.00
24306;BME280;12423;48.768;8.850;2023-09-19T02:42:07;96708.72;;;15.25;100.00
24306;BME280;12423;48.768;8.850;2023-09-19T02:44:34;96705.53;;;15.30;100.00
24306;BME280;12423;48.768;8.850;2023-09-19T02:47:02;96707.41;;;15.29;100.00
24306;BME280;12423;48.768;8.850;2023-09-19T02:49:30;96711.41;;;15.34;100.00
24306;BME280;12423;48.768;8.850;2023-09-19T02:51:58;96709.22;;;15.37;100.00
24306;BME280;12423;48.768;8.850;2023-09-19T02:54:27;96712.78;;;15.38;100.00
24306;BME280;12423;48.768;8.850;2023-09-19T02:56:55;96706.69;;;15.36;100.00
24306;BME280;12423;48.768;8.850;2023-09-19T02:59:23;96717.63;;;15.34;100.00
24306;BME280;12423;48.768;8.850;2023-09-19T03:01:51;96717.28;;;15.37;100.00
24306;BME280;12423;48.768;8.850;2023-09-19T03:04:20;96716.13;;;15.40;100.00
24306;BME280;12423;48.768;8.850;2023-09-19T03:06:48;96707.03;;;15.41;100.00
24306;BME280;12423;48.768;8.850;2023-09-19T03:09:17;96714.75;;;15.44;100.00
24306;BME280;12423;48.768;8.850;2023-09-19T03:11:47;96716.44;;;15.45;100.00
24306;BME280;12423;48.768;8.850;2023-09-19T03:14:15;96724.03;;;15.50;100.00
24306;BME280;12423;48.768;8.850;2023-09-19T03:16:44;96724.50;;;15.53;100.00
24306;BME280;12423;48.768;8.850;2023-09-19T03:19:13;96733.91;;;15.57;100.00
24306;BME280;12423;48.768;8.850;2023-09-19T03:21:42;96727.84;;;15.63;100.00
24306;BME280;12423;48.768;8.850;2023-09-19T03:24:10;96725.47;;;15.69;100.00
24306;BME280;12423;48.768;8.850;2023-09-19T03:26:38;96719.75;;;15.72;100.00
24306;BME280;12423;48.768;8.850;2023-09-19T03:29:07;96715.88;;;15.74;100.00
24306;BME280;12423;48.768;8.850;2023-09-19T03:31:37;96722.47;;;15.80;100.00
24306;BME280;12423;48.768;8.850;2023-09-19T03:34:07;96720.94;;;15.86;100.00
24306;BME280;12423;48.768;8.850;2023-09-19T03:36:35;96727.16;;;15.86;100.00
24306;BME280;12423;48.768;8.850;2023-09-19T03:39:03;96720.06;;;15.93;100.00
24306;BME280;12423;48.768;8.850;2023-09-19T03:41:32;96715.84;;;15.99;100.00
24306;BME280;12423;48.768;8.850;2023-09-19T03:44:02;96725.41;;;16.01;100.00
24306;BME280;12423;48.768;8.850;2023-09-19T03:46:32;96732.16;;;16.06;100.00
24306;BME280;12423;48.768;8.850;2023-09-19T03:49:02;96727.06;;;16.11;100.00
24306;BME280;12423;48.768;8.850;2023-09-19T03:51:30;96722.34;;;16.13;100.00
24306;BME280;12423;48.768;8.850;2023-09-19T03:53:57;96721.81;;;16.17;100.00
24306;BME280;12423;48.768;8.850;2023-09-19T03:56:25;96721.00;;;16.17;100.00
24306;BME280;12423;48.768;8.850;2023-09-19T03:58:55;96713.56;;;16.19;100.00
24306;BME280;12423;48.768;8.850;2023-09-19T04:01:22;96718.78;;;16.20;100.00
24306;BME280;12423;48.768;8.850;2023-09-19T04:03:51;96717.28;;;16.18;100.00
24306;BME280;12423;48.768;8.850;2023-09-19T04:06:20;96716.25;;;16.19;100.00
24306;BME280;12423;48.768;8.850;2023-09-19T04:08:47;96724.34;;;16.19;100.00
24306;BME280;12423;48.768;8.850;2023-09-19T04:11:15;96721.31;;;16.22;100.00
24306;BME280;12423;48.768;8.850;2023-09-19T04:13:42;96722.97;;;16.23;100.00
24306;BME280;12423;48.768;8.850;2023-09-19T04:16:10;96716.56;;;16.24;100.00
24306;BME280;12423;48.768;8.850;2023-09-19T04:18:38;96724.47;;;16.26;100.00
24306;BME280;12423;48.768;8.850;2023-09-19T04:21:08;96729.38;;;16.22;100.00
24306;BME280;12423;48.768;8.850;2023-09-19T04:23:36;96724.00;;;16.22;100.00
24306;BME280;12423;48.768;8.850;2023-09-19T04:26:04;96734.09;;;16.20;100.00
24306;BME280;12423;48.768;8.850;2023-09-19T04:28:33;96747.25;;;16.15;100.00
24306;BME280;12423;48.768;8.850;2023-09-19T04:31:02;96754.06;;;15.94;100.00
24306;BME280;12423;48.768;8.850;2023-09-19T04:33:30;96758.66;;;15.86;100.00
24306;BME280;12423;48.768;8.850;2023-09-19T04:35:57;96762.19;;;15.78;100.00
24306;BME280;12423;48.768;8.850;2023-09-19T04:38:41;96756.44;;;15.73;100.00
24306;BME280;12423;48.768;8.850;2023-09-19T04:41:12;96757.63;;;15.62;100.00
24306;BME280;12423;48.768;8.850;2023-09-19T04:43:41;96752.94;;;15.56;100.00
24306;BME280;12423;48.768;8.850;2023-09-19T04:46:08;96764.56;;;15.48;100.00
24306;BME280;12423;48.768;8.850;2023-09-19T04:48:36;96763.53;;;15.49;100.00
24306;BME280;12423;48.768;8.850;2023-09-19T04:51:04;96774.28;;;15.49;100.00
24306;BME280;12423;48.768;8.850;2023-09-19T04:53:31;96773.97;;;15.52;100.00
24306;BME280;12423;48.768;8.850;2023-09-19T04:56:01;96777.69;;;15.51;100.00
24306;BME280;12423;48.768;8.850;2023-09-19T04:58:34;96775.66;;;15.53;100.00
24306;BME280;12423;48.768;8.850;2023-09-19T05:01:01;96779.34;;;15.60;100.00
24306;BME280;12423;48.768;8.850;2023-09-19T05:03:30;96792.13;;;15.66;100.00
24306;BME280;12423;48.768;8.850;2023-09-19T05:05:58;96786.75;;;15.66;100.00
24306;BME280;12423;48.768;8.850;2023-09-19T05:08:25;96806.41;;;15.75;100.00
24306;BME280;12423;48.768;8.850;2023-09-19T05:10:53;96814.03;;;15.80;100.00
24306;BME280;12423;48.768;8.850;2023-09-19T05:13:23;96802.22;;;15.73;100.00
24306;BME280;12423;48.768;8.850;2023-09-19T05:15:51;96812.50;;;15.69;100.00
24306;BME280;12423;48.768;8.850;2023-09-19T05:18:18;96824.09;;;15.70;100.00
24306;BME280;12423;48.768;8.850;2023-09-19T05:20:46;96819.56;;;15.54;100.00
24306;BME280;12423;48.768;8.850;2023-09-19T05:23:15;96814.34;;;15.44;100.00
24306;BME280;12423;48.768;8.850;2023-09-19T05:25:43;96821.25;;;15.46;100.00
24306;BME280;12423;48.768;8.850;2023-09-19T05:28:11;96823.59;;;15.50;100.00
24306;BME280;12423;48.768;8.850;2023-09-19T05:30:43;96837.06;;;15.50;100.00
24306;BME280;12423;48.768;8.850;2023-09-19T05:33:14;96832.03;;;15.46;100.00
24306;BME280;12423;48.768;8.850;2023-09-19T05:35:42;96832.50;;;15.42;100.00
24306;BME280;12423;48.768;8.850;2023-09-19T05:38:09;96842.28;;;15.35;100.00
24306;BME280;12423;48.768;8.850;2023-09-19T05:40:39;96838.56;;;15.36;100.00
24306;BME280;12423;48.768;8.850;2023-09-19T05:43:08;96853.88;;;15.35;100.00
24306;BME280;12423;48.768;8.850;2023-09-19T05:45:36;96857.22;;;15.37;100.00
24306;BME280;12423;48.768;8.850;2023-09-19T05:48:08;96858.41;;;15.18;100.00
24306;BME280;12423;48.768;8.850;2023-09-19T05:50:37;96865.59;;;15.09;100.00
24306;BME280;12423;48.768;8.850;2023-09-19T05:53:06;96864.91;;;14.99;100.00
24306;BME280;12423;48.768;8.850;2023-09-19T05:55:33;96865.53;;;14.93;100.00
24306;BME280;12423;48.768;8.850;2023-09-19T05:58:01;96881.50;;;14.86;100.00
24306;BME280;12423;48.768;8.850;2023-09-19T06:00:30;96891.09;;;14.89;100.00
24306;BME280;12423;48.768;8.850;2023-09-19T06:02:58;96878.50;;;14.98;100.00
24306;BME280;12423;48.768;8.850;2023-09-19T06:05:28;96882.72;;;15.00;100.00
24306;BME280;12423;48.768;8.850;2023-09-19T06:07:56;96895.69;;;15.05;100.00
24306;BME280;12423;48.768;8.850;2023-09-19T06:10:27;96897.88;;;15.09;100.00
24306;BME280;12423;48.768;8.850;2023-09-19T06:12:55;96893.69;;;15.07;100.00
24306;BME280;12423;48.768;8.850;2023-09-19T06:15:24;96887.84;;;15.20;100.00
24306;BME280;12423;48.768;8.850;2023-09-19T06:17:53;96892.53;;;15.26;100.00
24306;BME280;12423;48.768;8.850;2023-09-19T06:20:22;96894.22;;;15.27;100.00
24306;BME280;12423;48.768;8.850;2023-09-19T06:22:51;96886.34;;;15.34;100.00
24306;BME280;12423;48.768;8.850;2023-09-19T06:25:20;96886.31;;;15.25;100.00
24306;BME280;12423;48.768;8.850;2023-09-19T06:27:49;96895.94;;;15.36;100.00
24306;BME280;12423;48.768;8.850;2023-09-19T06:30:18;96900.44;;;15.27;100.00
24306;BME280;12423;48.768;8.850;2023-09-19T06:32:46;96892.03;;;15.30;100.00
24306;BME280;12423;48.768;8.850;2023-09-19T06:35:15;96897.25;;;15.32;100.00
24306;BME280;12423;48.768;8.850;2023-09-19T06:37:42;96892.91;;;15.39;100.00
24306;BME280;12423;48.768;8.850;2023-09-19T06:40:12;96889.38;;;15.47;100.00
24306;BME280;12423;48.768;8.850;2023-09-19T06:42:40;96883.34;;;15.53;100.00
24306;BME280;12423;48.768;8.850;2023-09-19T06:45:08;96899.13;;;15.40;100.00
24306;BME280;12423;48.768;8.850;2023-09-19T06:47:37;96902.34;;;15.52;100.00
24306;BME280;12423;48.768;8.850;2023-09-19T06:50:05;96900.97;;;15.47;100.00
24306;BME280;12423;48.768;8.850;2023-09-19T06:52:39;96907.22;;;15.40;100.00
24306;BME280;12423;48.768;8.850;2023-09-19T06:55:07;96901.34;;;15.44;100.00
24306;BME280;12423;48.768;8.850;2023-09-19T06:57:37;96906.19;;;15.57;100.00
24306;BME280;12423;48.768;8.850;2023-09-19T07:00:07;96903.19;;;15.60;100.00
24306;BME280;12423;48.768;8.850;2023-09-19T07:02:41;96909.75;;;15.58;100.00
24306;BME280;12423;48.768;8.850;2023-09-19T07:05:09;96924.88;;;15.59;100.00
24306;BME280;12423;48.768;8.850;2023-09-19T07:07:36;96925.22;;;15.56;100.00
24306;BME280;12423;48.768;8.850;2023-09-19T07:10:04;96931.13;;;15.59;100.00
24306;BME280;12423;48.768;8.850;2023-09-19T07:12:32;96934.81;;;15.50;100.00
24306;BME280;12423;48.768;8.850;2023-09-19T07:15:01;96931.63;;;15.55;100.00
24306;BME280;12423;48.768;8.850;2023-09-19T07:17:29;96938.19;;;15.60;100.00
24306;BME280;12423;48.768;8.850;2023-09-19T07:19:57;96937.00;;;15.46;100.00
24306;BME280;12423;48.768;8.850;2023-09-19T07:22:25;96932.13;;;15.50;100.00
24306;BME280;12423;48.768;8.850;2023-09-19T07:24:53;96940.84;;;15.52;100.00
24306;BME280;12423;48.768;8.850;2023-09-19T07:27:21;96941.56;;;15.62;100.00
24306;BME280;12423;48.768;8.850;2023-09-19T07:29:48;96939.22;;;15.68;100.00
24306;BME280;12423;48.768;8.850;2023-09-19T07:32:21;96938.06;;;15.78;100.00
24306;BME280;12423;48.768;8.850;2023-09-19T07:34:50;96942.63;;;15.86;100.00
24306;BME280;12423;48.768;8.850;2023-09-19T07:37:18;96951.38;;;15.96;100.00
24306;BME280;12423;48.768;8.850;2023-09-19T07:39:45;96949.19;;;16.08;100.00
24306;BME280;12423;48.768;8.850;2023-09-19T07:42:13;96950.03;;;16.25;100.00
24306;BME280;12423;48.768;8.850;2023-09-19T07:44:44;96949.16;;;16.33;100.00
24306;BME280;12423;48.768;8.850;2023-09-19T07:47:13;96942.59;;;16.44;100.00
24306;BME280;12423;48.768;8.850;2023-09-19T07:49:42;96944.56;;;16.50;100.00
24306;BME280;12423;48.768;8.850;2023-09-19T07:52:09;96937.81;;;16.62;100.00
24306;BME280;12423;48.768;8.850;2023-09-19T07:54:38;96946.75;;;16.54;100.00
24306;BME280;12423;48.768;8.850;2023-09-19T07:57:07;96945.94;;;16.46;100.00
24306;BME280;12423;48.768;8.850;2023-09-19T07:59:35;96954.88;;;16.38;100.00
24306;BME280;12423;48.768;8.850;2023-09-19T08:02:04;96951.34;;;16.37;100.00
24306;BME280;12423;48.768;8.850;2023-09-19T08:04:34;96963.44;;;16.58;100.00
24306;BME280;12423;48.768;8.850;2023-09-19T08:07:04;96959.38;;;16.70;100.00
24306;BME280;12423;48.768;8.850;2023-09-19T08:09:32;96964.41;;;16.73;100.00
24306;BME280;12423;48.768;8.850;2023-09-19T08:12:00;96962.38;;;16.75;100.00
24306;BME280;12423;48.768;8.850;2023-09-19T08:14:29;96972.16;;;16.76;100.00
24306;BME280;12423;48.768;8.850;2023-09-19T08:16:57;96967.94;;;16.74;100.00
24306;BME280;12423;48.768;8.850;2023-09-19T08:19:25;96981.09;;;16.85;100.00
24306;BME280;12423;48.768;8.850;2023-09-19T08:21:55;96976.34;;;16.95;100.00
24306;BME280;12423;48.768;8.850;2023-09-19T08:24:26;96978.00;;;17.05;100.00
24306;BME280;12423;48.768;8.850;2023-09-19T08:26:55;96969.72;;;17.15;100.00
24306;BME280;12423;48.768;8.850;2023-09-19T08:29:22;96981.09;;;16.93;100.00
24306;BME280;12423;48.768;8.850;2023-09-19T08:31:54;96983.63;;;16.87;100.00
24306;BME280;12423;48.768;8.850;2023-09-19T08:34:22;96974.69;;;16.94;100.00
24306;BME280;12423;48.768;8.850;2023-09-19T08:36:50;96987.59;;;17.07;100.00
24306;BME280;12423;48.768;8.850;2023-09-19T08:39:18;96988.25;;;17.18;100.00
24306;BME280;12423;48.768;8.850;2023-09-19T08:41:47;96993.44;;;17.27;100.00
24306;BME280;12423;48.768;8.850;2023-09-19T08:44:15;96988.81;;;17.44;100.00
24306;BME280;12423;48.768;8.850;2023-09-19T08:46:43;96985.63;;;17.41;100.00
24306;BME280;12423;48.768;8.850;2023-09-19T08:49:13;96986.72;;;17.55;100.00
24306;BME280;12423;48.768;8.850;2023-09-19T08:51:47;96977.56;;;17.64;100.00
24306;BME280;12423;48.768;8.850;2023-09-19T08:54:21;96986.38;;;17.81;100.00
24306;BME280;12423;48.768;8.850;2023-09-19T08:56:51;96993.88;;;17.71;100.00
24306;BME280;12423;48.768;8.850;2023-09-19T08:59:21;96992.97;;;17.78;100.00
24306;BME280;12423;48.768;8.850;2023-09-19T09:01:50;96993.97;;;17.85;100.00
24306;BME280;12423;48.768;8.850;2023-09-19T09:04:20;96994.13;;;17.92;100.00
24306;BME280;12423;48.768;8.850;2023-09-19T09:06:47;96999.28;;;18.02;100.00
24306;BME280;12423;48.768;8.850;2023-09-19T09:09:19;96995.41;;;18.19;100.00
24306;BME280;12423;48.768;8.850;2023-09-19T09:11:48;96998.47;;;18.16;100.00
24306;BME280;12423;48.768;8.850;2023-09-19T09:14:17;97005.94;;;17.91;100.00
24306;BME280;12423;48.768;8.850;2023-09-19T09:16:46;97002.88;;;17.94;100.00
24306;BME280;12423;48.768;8.850;2023-09-19T09:19:15;97019.78;;;17.88;100.00
24306;BME280;12423;48.768;8.850;2023-09-19T09:21:50;97001.25;;;17.77;100.00
24306;BME280;12423;48.768;8.850;2023-09-19T09:24:27;97005.56;;;17.94;100.00
24306;BME280;12423;48.768;8.850;2023-09-19T09:26:55;97000.00;;;17.96;100.00
24306;BME280;12423;48.768;8.850;2023-09-19T09:32:17;96998.88;;;18.13;100.00
24306;BME280;12423;48.768;8.850;2023-09-19T09:34:46;97010.84;;;18.34;100.00
24306;BME280;12423;48.768;8.850;2023-09-19T09:37:15;97005.34;;;18.27;100.00
24306;BME280;12423;48.768;8.850;2023-09-19T09:39:49;97002.19;;;18.38;100.00
24306;BME280;12423;48.768;8.850;2023-09-19T09:42:28;97000.06;;;18.49;100.00
24306;BME280;12423;48.768;8.850;2023-09-19T09:47:56;97006.28;;;18.34;100.00
24306;BME280;12423;48.768;8.850;2023-09-19T09:50:26;97007.53;;;18.47;100.00
24306;BME280;12423;48.768;8.850;2023-09-19T09:53:19;97007.19;;;18.88;100.00
24306;BME280;12423;48.768;8.850;2023-09-19T09:55:57;97005.53;;;18.78;99.19
24306;BME280;12423;48.768;8.850;2023-09-19T09:58:24;97002.81;;;18.78;100.00
24306;BME280;12423;48.768;8.850;2023-09-19T10:00:56;96999.09;;;18.65;100.00
24306;BME280;12423;48.768;8.850;2023-09-19T10:03:32;97012.25;;;18.68;97.25
24306;BME280;12423;48.768;8.850;2023-09-19T10:06:09;97000.25;;;18.85;99.02
24306;BME280;12423;48.768;8.850;2023-09-19T10:08:57;97007.09;;;19.11;97.17
24306;BME280;12423;48.768;8.850;2023-09-19T10:11:29;97003.91;;;19.37;94.10
24306;BME280;12423;48.768;8.850;2023-09-19T10:13:56;96996.91;;;19.28;89.59
24306;BME280;12423;48.768;8.850;2023-09-19T10:16:24;97001.81;;;19.54;89.05
24306;BME280;12423;48.768;8.850;2023-09-19T10:18:53;96992.72;;;19.77;86.02
24306;BME280;12423;48.768;8.850;2023-09-19T10:21:24;96989.22;;;19.83;85.33
24306;BME280;12423;48.768;8.850;2023-09-19T10:23:55;96981.38;;;19.88;85.43
24306;BME280;12423;48.768;8.850;2023-09-19T10:26:25;96992.31;;;19.80;83.80
24306;BME280;12423;48.768;8.850;2023-09-19T10:28:57;97003.50;;;19.25;84.43
24306;BME280;12423;48.768;8.850;2023-09-19T10:31:26;96992.66;;;19.55;84.13
24306;BME280;12423;48.768;8.850;2023-09-19T10:33:56;96986.03;;;20.16;83.57
24306;BME280;12423;48.768;8.850;2023-09-19T10:36:24;96987.63;;;20.82;81.60
24306;BME280;12423;48.768;8.850;2023-09-19T10:38:53;96985.13;;;20.58;77.98
24306;BME280;12423;48.768;8.850;2023-09-19T10:41:21;96999.69;;;19.86;79.09
24306;BME280;12423;48.768;8.850;2023-09-19T10:43:49;97001.31;;;19.65;77.29
24306;BME280;12423;48.768;8.850;2023-09-19T10:46:20;96988.47;;;19.89;76.70
24306;BME280;12423;48.768;8.850;2023-09-19T10:48:47;96989.41;;;20.18;77.35
24306;BME280;12423;48.768;8.850;2023-09-19T10:51:22;96980.97;;;20.84;75.37
24306;BME280;12423;48.768;8.850;2023-09-19T10:53:51;97005.78;;;21.09;72.19
24306;BME280;12423;48.768;8.850;2023-09-19T10:56:21;96998.56;;;21.65;72.64
24306;BME280;12423;48.768;8.850;2023-09-19T10:58:50;96994.13;;;21.50;70.12
24306;BME280;12423;48.768;8.850;2023-09-19T11:01:18;96982.97;;;22.07;68.80
24306;BME280;12423;48.768;8.850;2023-09-19T11:03:46;96986.63;;;22.61;68.45
24306;BME280;12423;48.768;8.850;2023-09-19T11:06:16;96984.09;;;22.46;64.08
24306;BME280;12423;48.768;8.850;2023-09-19T11:08:57;96984.00;;;20.68;66.20
24306;BME280;12423;48.768;8.850;2023-09-19T11:11:40;96987.97;;;20.22;70.27
24306;BME280;12423;48.768;8.850;2023-09-19T11:14:14;96975.75;;;21.59;65.96
24306;BME280;12423;48.768;8.850;2023-09-19T11:19:33;96971.31;;;23.07;63.03
24306;BME280;12423;48.768;8.850;2023-09-19T11:22:20;96975.63;;;23.21;63.98
24306;BME280;12423;48.768;8.850;2023-09-19T11:24:50;96958.44;;;24.18;59.16
24306;BME280;12423;48.768;8.850;2023-09-19T11:27:17;96958.22;;;25.13;58.24
24306;BME280;12423;48.768;8.850;2023-09-19T11:29:46;96961.84;;;25.81;56.40
24306;BME280;12423;48.768;8.850;2023-09-19T11:32:15;96956.06;;;26.20;56.67
24306;BME280;12423;48.768;8.850;2023-09-19T11:34:44;96955.50;;;25.50;56.04
24306;BME280;12423;48.768;8.850;2023-09-19T11:40:10;96962.03;;;25.31;54.33
24306;BME280;12423;48.768;8.850;2023-09-19T11:42:43;96958.03;;;24.14;59.58
24306;BME280;12423;48.768;8.850;2023-09-19T11:47:57;96961.72;;;22.57;68.21
24306;BME280;12423;48.768;8.850;2023-09-19T11:50:26;96954.53;;;22.03;71.65
24306;BME280;12423;48.768;8.850;2023-09-19T11:52:55;96952.00;;;21.81;72.73
24306;BME280;12423;48.768;8.850;2023-09-19T11:55:24;96955.56;;;23.09;67.47
24306;BME280;12423;48.768;8.850;2023-09-19T11:57:54;96947.19;;;23.62;64.31
24306;BME280;12423;48.768;8.850;2023-09-19T12:00:22;96934.38;;;23.69;61.73
24306;BME280;12423;48.768;8.850;2023-09-19T12:02:50;96938.44;;;24.74;59.86
24306;BME280;12423;48.768;8.850;2023-09-19T12:05:27;96943.00;;;24.30;59.37
24306;BME280;12423;48.768;8.850;2023-09-19T12:07:55;96929.00;;;23.56;62.55
24306;BME280;12423;48.768;8.850;2023-09-19T12:10:24;96933.16;;;23.07;64.06
24306;BME280;12423;48.768;8.850;2023-09-19T12:12:52;96936.31;;;23.55;63.96
24306;BME280;12423;48.768;8.850;2023-09-19T12:15:23;96920.91;;;26.05;60.46
24306;BME280;12423;48.768;8.850;2023-09-19T12:17:54;96918.91;;;27.83;52.31
24306;BME280;12423;48.768;8.850;2023-09-19T12:20:22;96921.88;;;28.73;49.88
24306;BME280;12423;48.768;8.850;2023-09-19T12:22:50;96916.75;;;29.37;46.66
24306;BME280;12423;48.768;8.850;2023-09-19T12:25:17;96912.19;;;29.70;46.20
24306;BME280;12423;48.768;8.850;2023-09-19T12:27:49;96905.53;;;29.88;45.23
24306;BME280;12423;48.768;8.850;2023-09-19T12:30:19;96905.06;;;30.56;43.66
24306;BME280;12423;48.768;8.850;2023-09-19T12:32:53;96903.88;;;30.84;43.36
24306;BME280;12423;48.768;8.850;2023-09-19T12:35:29;96903.78;;;31.12;39.43
24306;BME280;12423;48.768;8.850;2023-09-19T12:38:01;96894.59;;;30.58;39.21
24306;BME280;12423;48.768;8.850;2023-09-19T12:40:30;96893.34;;;30.76;40.12
24306;BME280;12423;48.768;8.850;2023-09-19T12:43:01;96887.81;;;27.77;41.75
24306;BME280;12423;48.768;8.850;2023-09-19T12:45:30;96899.91;;;27.93;41.32
24306;BME280;12423;48.768;8.850;2023-09-19T12:50:59;96892.13;;;28.19;43.02
24306;BME280;12423;48.768;8.850;2023-09-19T12:53:32;96901.47;;;26.37;44.32
24306;BME280;12423;48.768;8.850;2023-09-19T12:56:02;96899.81;;;26.95;44.50
24306;BME280;12423;48.768;8.850;2023-09-19T12:58:33;96885.06;;;28.23;44.44
24306;BME280;12423;48.768;8.850;2023-09-19T13:01:01;96892.13;;;29.48;39.84
24306;BME280;12423;48.768;8.850;2023-09-19T13:03:31;96888.16;;;28.43;40.67
24306;BME280;12423;48.768;8.850;2023-09-19T13:06:01;96888.56;;;29.74;40.85
24306;BME280;12423;48.768;8.850;2023-09-19T13:08:30;96884.22;;;30.06;42.49
24306;BME280;12423;48.768;8.850;2023-09-19T13:11:03;96889.81;;;30.81;38.16
24306;BME280;12423;48.768;8.850;2023-09-19T13:13:30;96886.06;;;29.73;39.89
24306;BME280;12423;48.768;8.850;2023-09-19T13:16:00;96889.06;;;29.05;40.27
24306;BME280;12423;48.768;8.850;2023-09-19T13:18:28;96878.94;;;27.87;40.03
24306;BME280;12423;48.768;8.850;2023-09-19T13:21:05;96883.63;;;29.10;41.72
24306;BME280;12423;48.768;8.850;2023-09-19T13:23:33;96882.34;;;29.84;42.73